createdAt,value
2022-10-30T00:00:34.378Z,95.90
2022-10-30T00:03:22.060Z,96.10
2022-10-30T00:06:07.836Z,96.30
2022-10-30T00:08:54.116Z,96.40
2022-10-30T00:11:41.842Z,96.70
2022-10-30T00:14:27.234Z,96.90
2022-10-30T00:17:14.916Z,97.20
2022-10-30T00:20:00.340Z,97.30
2022-10-30T00:22:46.453Z,97.40
2022-10-30T00:25:32.294Z,97.60
2022-10-30T00:28:17.764Z,97.70
2022-10-30T00:31:04.979Z,98.10
2022-10-30T00:33:52.468Z,98.50
2022-10-30T00:36:39.841Z,98.80
2022-10-30T00:39:25.941Z,99.10
2022-10-30T00:42:17.692Z,99.20
2022-10-30T00:45:03.419Z,99.30
2022-10-30T00:47:58.165Z,99.40
2022-10-30T00:50:46.177Z,99.50
2022-10-30T00:53:31.891Z,99.60
2022-10-30T00:56:22.237Z,99.70
2022-10-30T00:59:30.538Z,99.70
2022-10-30T01:02:17.163Z,99.90
2022-10-30T01:05:04.185Z,99.90
2022-10-30T01:07:52.059Z,99.90
2022-10-30T01:10:38.789Z,99.90
2022-10-30T01:13:27.728Z,99.90
2022-10-30T01:16:16.869Z,99.90
2022-10-30T01:19:21.915Z,99.90
2022-10-30T01:22:13.339Z,99.90
2022-10-30T01:25:23.253Z,99.90
2022-10-30T01:28:16.945Z,99.90
2022-10-30T01:31:11.682Z,99.90
2022-10-30T01:34:05.651Z,99.90
2022-10-30T01:37:05.087Z,99.90
2022-10-30T01:39:53.643Z,99.90
2022-10-30T01:42:44.805Z,99.90
2022-10-30T01:45:48.253Z,99.90
2022-10-30T01:48:41.680Z,99.90
2022-10-30T01:51:33.633Z,99.90
2022-10-30T01:54:25.793Z,99.90
2022-10-30T01:57:36.877Z,99.90
2022-10-30T02:00:25.774Z,99.90
2022-10-30T02:03:14.443Z,99.90
2022-10-30T02:06:02.610Z,99.90
2022-10-30T02:08:47.905Z,99.90
2022-10-30T02:11:34.813Z,99.90
2022-10-30T02:14:28.532Z,99.90
2022-10-30T02:17:13.934Z,99.90
2022-10-30T02:19:59.165Z,99.90
2022-10-30T02:22:44.998Z,99.90
2022-10-30T02:25:30.422Z,99.90
2022-10-30T02:28:15.849Z,99.90
2022-10-30T02:31:01.999Z,99.90
2022-10-30T02:33:47.710Z,99.90
2022-10-30T02:36:33.289Z,99.90
2022-10-30T02:39:21.250Z,99.90
2022-10-30T02:42:07.357Z,99.90
2022-10-30T02:44:52.459Z,99.90
2022-10-30T02:47:40.239Z,99.90
2022-10-30T02:50:28.053Z,99.90
2022-10-30T02:53:15.580Z,99.90
2022-10-30T02:56:14.388Z,99.90
2022-10-30T02:59:04.371Z,99.90
2022-10-30T03:01:49.734Z,99.90
2022-10-30T03:04:35.223Z,99.90
2022-10-30T03:07:20.722Z,99.90
2022-10-30T03:10:06.813Z,99.90
2022-10-30T03:12:52.230Z,99.90
2022-10-30T03:15:37.514Z,99.90
2022-10-30T03:18:25.221Z,99.90
2022-10-30T03:21:13.049Z,99.90
2022-10-30T03:23:58.753Z,99.90
2022-10-30T03:26:44.817Z,99.90
2022-10-30T03:29:30.820Z,99.90
2022-10-30T03:32:18.477Z,99.90
2022-10-30T03:35:04.138Z,99.90
2022-10-30T03:37:52.200Z,99.90
2022-10-30T03:40:37.821Z,99.90
2022-10-30T03:43:28.742Z,99.90
2022-10-30T03:46:16.716Z,99.90
2022-10-30T03:49:02.438Z,99.90
2022-10-30T03:51:47.861Z,99.90
2022-10-30T03:54:33.446Z,99.90
2022-10-30T03:57:18.789Z,99.90
2022-10-30T04:00:06.064Z,99.90
2022-10-30T04:02:52.668Z,99.90
2022-10-30T04:05:38.773Z,99.90
2022-10-30T04:08:26.678Z,99.90
2022-10-30T04:11:12.599Z,99.90
2022-10-30T04:13:58.567Z,99.90
2022-10-30T04:16:44.040Z,99.90
2022-10-30T04:19:31.948Z,99.90
2022-10-30T04:22:17.438Z,99.90
2022-10-30T04:25:05.137Z,99.90
2022-10-30T04:27:50.643Z,99.90
2022-10-30T04:30:36.960Z,99.90
2022-10-30T04:33:22.217Z,99.90
2022-10-30T04:36:08.173Z,99.90
2022-10-30T04:38:53.761Z,99.90
2022-10-30T04:41:39.266Z,99.90
2022-10-30T04:44:24.713Z,99.90
2022-10-30T04:47:10.686Z,99.90
2022-10-30T04:49:56.226Z,99.90
2022-10-30T04:52:42.218Z,99.90
2022-10-30T04:55:28.918Z,99.90
2022-10-30T04:58:14.789Z,99.90
2022-10-30T05:01:06.041Z,99.90
2022-10-30T05:03:54.591Z,99.90
2022-10-30T05:06:40.493Z,99.90
2022-10-30T05:09:25.777Z,99.90
2022-10-30T05:12:11.297Z,99.90
2022-10-30T05:14:56.838Z,99.90
2022-10-30T05:17:45.052Z,99.90
2022-10-30T05:20:30.581Z,99.90
2022-10-30T05:23:16.365Z,99.90
2022-10-30T05:26:03.929Z,99.90
2022-10-30T05:28:49.093Z,99.90
2022-10-30T05:31:34.429Z,99.90
2022-10-30T05:34:19.689Z,99.90
2022-10-30T05:37:07.065Z,99.90
2022-10-30T05:39:54.924Z,99.90
2022-10-30T05:42:46.131Z,98.90
2022-10-30T05:45:34.169Z,97.80
2022-10-30T05:48:19.347Z,97.40
2022-10-30T05:51:08.495Z,97.20
2022-10-30T05:53:53.496Z,97.00
2022-10-30T05:56:41.381Z,96.70
2022-10-30T05:59:26.748Z,96.20
2022-10-30T06:02:14.378Z,95.80
2022-10-30T06:05:00.387Z,95.40
2022-10-30T06:07:48.777Z,95.00
2022-10-30T06:10:36.838Z,94.90
2022-10-30T06:13:22.092Z,94.80
2022-10-30T06:16:08.186Z,94.70
2022-10-30T06:18:55.539Z,94.40
2022-10-30T06:21:42.899Z,94.10
2022-10-30T06:24:28.120Z,93.90
2022-10-30T06:27:16.058Z,93.70
2022-10-30T06:30:02.201Z,93.60
2022-10-30T06:32:48.230Z,93.30
2022-10-30T06:35:33.958Z,93.10
2022-10-30T06:38:19.200Z,92.80
2022-10-30T06:41:05.061Z,92.70
2022-10-30T06:43:53.011Z,92.60
2022-10-30T06:46:40.416Z,92.30
2022-10-30T06:49:25.712Z,92.20
2022-10-30T06:52:11.346Z,91.90
2022-10-30T06:54:57.060Z,91.70
2022-10-30T06:57:42.265Z,91.50
2022-10-30T07:00:28.222Z,91.30
2022-10-30T07:03:13.788Z,91.10
2022-10-30T07:05:59.596Z,91.20
2022-10-30T07:08:48.566Z,91.20
2022-10-30T07:11:33.959Z,91.30
2022-10-30T07:14:23.790Z,91.40
2022-10-30T07:17:09.724Z,91.60
2022-10-30T07:19:54.974Z,91.80
2022-10-30T07:22:40.452Z,91.90
2022-10-30T07:25:29.016Z,92.00
2022-10-30T07:28:14.370Z,92.10
2022-10-30T07:31:02.042Z,92.00
2022-10-30T07:33:47.449Z,92.00
2022-10-30T07:36:32.675Z,92.00
2022-10-30T07:39:18.130Z,91.90
2022-10-30T07:42:04.176Z,91.80
2022-10-30T07:44:49.410Z,91.50
2022-10-30T07:47:42.701Z,91.30
2022-10-30T07:50:30.968Z,91.20
2022-10-30T07:53:16.545Z,91.10
2022-10-30T07:56:02.096Z,90.80
2022-10-30T07:58:52.031Z,90.80
2022-10-30T08:01:40.015Z,90.80
2022-10-30T08:04:25.391Z,90.70
2022-10-30T08:07:10.703Z,90.30
2022-10-30T08:09:56.007Z,90.00
2022-10-30T08:12:43.967Z,89.10
2022-10-30T08:15:29.601Z,87.60
2022-10-30T08:18:15.238Z,86.60
2022-10-30T08:21:02.456Z,85.50
2022-10-30T08:23:48.294Z,84.70
2022-10-30T08:26:33.545Z,83.20
2022-10-30T08:29:22.342Z,83.00
2022-10-30T08:32:07.510Z,82.90
2022-10-30T08:34:53.149Z,82.50
2022-10-30T08:37:38.400Z,82.50
2022-10-30T08:40:24.762Z,82.10
2022-10-30T08:43:10.489Z,81.30
2022-10-30T08:45:58.433Z,81.00
2022-10-30T08:48:46.073Z,80.40
2022-10-30T08:51:35.368Z,79.70
2022-10-30T08:54:20.785Z,78.40
2022-10-30T08:57:06.312Z,78.40
2022-10-30T08:59:51.872Z,77.90
2022-10-30T09:02:40.769Z,77.50
2022-10-30T09:05:26.646Z,76.80
2022-10-30T09:08:14.462Z,76.20
2022-10-30T09:11:00.027Z,75.60
2022-10-30T09:13:45.471Z,74.80
2022-10-30T09:16:30.759Z,74.60
2022-10-30T09:19:19.006Z,74.20
2022-10-30T09:22:04.574Z,74.10
2022-10-30T09:24:50.098Z,74.00
2022-10-30T09:27:39.728Z,74.00
2022-10-30T09:30:25.623Z,74.20
2022-10-30T09:33:11.145Z,74.30
2022-10-30T09:35:57.023Z,73.30
2022-10-30T09:38:43.685Z,73.30
2022-10-30T09:42:02.591Z,73.60
2022-10-30T09:45:35.244Z,73.50
2022-10-30T09:49:06.025Z,73.30
2022-10-30T09:52:09.760Z,73.20
2022-10-30T09:55:01.438Z,73.00
2022-10-30T09:58:10.421Z,71.90
2022-10-30T10:01:10.913Z,71.90
2022-10-30T10:04:28.587Z,71.30
2022-10-30T10:07:23.240Z,70.50
2022-10-30T10:10:28.247Z,70.60
2022-10-30T10:13:41.489Z,69.30
2022-10-30T10:16:33.525Z,67.90
2022-10-30T10:19:30.329Z,67.20
2022-10-30T10:22:25.255Z,66.30
2022-10-30T10:25:15.035Z,64.90
2022-10-30T10:28:08.062Z,64.10
2022-10-30T10:31:15.611Z,64.00
2022-10-30T10:34:39.312Z,62.90
2022-10-30T10:37:28.195Z,61.70
2022-10-30T10:40:19.814Z,60.60
2022-10-30T10:43:05.954Z,60.60
2022-10-30T10:46:19.043Z,59.30
2022-10-30T10:49:07.147Z,58.50
2022-10-30T10:52:02.126Z,58.30
2022-10-30T10:54:50.867Z,58.20
2022-10-30T10:57:39.244Z,58.00
2022-10-30T11:00:28.353Z,57.20
2022-10-30T11:03:55.427Z,57.00
2022-10-30T11:06:44.023Z,55.40
2022-10-30T11:09:29.465Z,55.20
2022-10-30T11:12:17.791Z,54.80
2022-10-30T11:15:29.414Z,54.80
2022-10-30T11:18:16.084Z,53.00
2022-10-30T11:21:20.434Z,52.90
2022-10-30T11:24:33.203Z,52.70
2022-10-30T11:27:18.646Z,52.60
2022-10-30T11:30:06.285Z,53.10
2022-10-30T11:32:53.332Z,52.90
2022-10-30T11:35:43.813Z,52.50
2022-10-30T11:38:32.419Z,52.30
2022-10-30T11:41:18.326Z,51.80
2022-10-30T11:44:05.715Z,51.30
2022-10-30T11:46:53.714Z,50.70
2022-10-30T11:49:56.299Z,50.30
2022-10-30T11:52:42.998Z,49.80
2022-10-30T11:55:41.868Z,49.50
2022-10-30T11:58:35.035Z,49.00
2022-10-30T12:01:27.952Z,48.90
2022-10-30T12:04:26.016Z,48.60
2022-10-30T12:07:15.134Z,48.50
2022-10-30T12:10:01.863Z,47.40
2022-10-30T12:12:51.694Z,47.70
2022-10-30T12:15:39.731Z,47.50
2022-10-30T12:21:20.614Z,47.00
2022-10-30T12:24:13.243Z,46.80
2022-10-30T12:27:06.754Z,46.60
2022-10-30T12:30:16.100Z,46.30
2022-10-30T12:33:14.732Z,46.10
2022-10-30T12:36:05.482Z,45.90
2022-10-30T12:39:14.927Z,45.20
2022-10-30T12:42:14.970Z,44.50
2022-10-30T12:45:11.770Z,43.00
2022-10-30T12:48:11.213Z,38.60
2022-10-30T12:51:24.230Z,28.40
2022-10-30T12:54:14.898Z,22.50
2022-10-30T12:57:27.503Z,20.30
2022-10-30T13:00:15.879Z,17.50
2022-10-30T13:03:12.106Z,18.20
2022-10-30T13:06:13.926Z,20.60
2022-10-30T13:09:26.324Z,21.20
2022-10-30T13:12:22.435Z,21.90
2022-10-30T13:15:21.014Z,21.10
2022-10-30T13:18:23.911Z,19.80
2022-10-30T13:21:24.595Z,19.00
2022-10-30T13:24:21.535Z,21.00
2022-10-30T13:27:15.902Z,24.50
2022-10-30T13:30:06.846Z,28.00
2022-10-30T13:33:17.966Z,30.00
2022-10-30T13:36:23.074Z,32.10
2022-10-30T13:39:27.627Z,34.10
2022-10-30T13:42:35.302Z,35.90
2022-10-30T13:45:45.839Z,36.90
2022-10-30T13:49:06.678Z,37.70
2022-10-30T13:52:00.990Z,38.70
2022-10-30T13:55:15.622Z,39.40
2022-10-30T13:58:14.034Z,39.90
2022-10-30T14:01:37.353Z,40.40
2022-10-30T14:04:58.265Z,40.80
2022-10-30T14:08:06.339Z,41.10
2022-10-30T14:11:00.578Z,41.40
2022-10-30T14:13:56.117Z,41.80
2022-10-30T14:16:43.725Z,42.20
2022-10-30T14:19:29.241Z,42.50
2022-10-30T14:22:25.763Z,42.80
2022-10-30T14:25:15.979Z,42.90
2022-10-30T14:28:04.269Z,43.30
2022-10-30T14:31:11.711Z,43.50
2022-10-30T14:33:57.040Z,43.80
2022-10-30T14:36:42.712Z,44.50
2022-10-30T14:39:30.299Z,45.40
2022-10-30T14:42:44.904Z,45.80
2022-10-30T14:45:36.520Z,46.00
2022-10-30T14:48:29.173Z,47.50
2022-10-30T14:51:20.628Z,48.40
2022-10-30T14:54:27.489Z,48.00
2022-10-30T14:57:43.079Z,49.80
2022-10-30T15:00:43.551Z,49.40
2022-10-30T15:04:14.409Z,50.00
2022-10-30T15:07:14.759Z,50.90
2022-10-30T15:10:07.001Z,50.70
2022-10-30T15:13:21.231Z,51.90
2022-10-30T15:16:11.070Z,53.10
2022-10-30T15:19:01.955Z,54.20
2022-10-30T15:22:00.093Z,55.20
2022-10-30T15:24:50.020Z,56.30
2022-10-30T15:27:41.824Z,57.50
2022-10-30T15:30:28.164Z,58.00
2022-10-30T15:33:22.152Z,59.20
2022-10-30T15:36:24.029Z,59.30
2022-10-30T15:39:20.582Z,60.70
2022-10-30T15:42:52.333Z,61.70
2022-10-30T15:45:44.595Z,63.00
2022-10-30T15:48:36.768Z,63.50
2022-10-30T15:51:26.486Z,64.80
2022-10-30T15:54:22.304Z,65.90
2022-10-30T15:57:49.465Z,66.70
2022-10-30T16:00:30.554Z,67.70
2022-10-30T16:03:22.792Z,68.90
2022-10-30T16:09:26.546Z,70.60
2022-10-30T16:12:14.480Z,71.70
2022-10-30T16:27:18.633Z,74.70
2022-10-30T16:34:13.455Z,76.50
2022-10-30T16:36:59.324Z,77.00
2022-10-30T16:45:51.871Z,79.00
2022-10-30T16:48:44.232Z,79.10
2022-10-30T16:51:32.153Z,79.60
2022-10-30T16:57:37.990Z,80.70
2022-10-30T17:24:03.823Z,84.80
2022-10-30T17:27:00.748Z,85.30
2022-10-30T17:29:46.598Z,85.80
2022-10-30T17:32:45.052Z,86.30
2022-10-30T17:35:30.286Z,86.40
2022-10-30T17:38:24.360Z,86.70
2022-10-30T17:44:40.352Z,87.70
2022-10-30T17:47:32.911Z,88.10
2022-10-30T17:50:23.794Z,88.80
2022-10-30T17:53:21.773Z,89.00
2022-10-30T17:56:15.529Z,89.50
2022-10-30T17:59:01.816Z,90.00
2022-10-30T18:14:54.370Z,91.10
2022-10-30T18:30:35.896Z,91.90
2022-10-30T18:36:40.890Z,92.30
2022-10-30T18:39:26.431Z,92.60
2022-10-30T18:42:33.034Z,92.80
2022-10-30T18:45:24.631Z,93.10
2022-10-30T18:54:43.420Z,93.60
2022-10-30T19:03:48.844Z,94.00
2022-10-30T19:06:34.813Z,94.10
2022-10-30T19:09:25.022Z,94.40
2022-10-30T19:12:11.594Z,94.60
2022-10-30T19:14:58.112Z,94.70
2022-10-30T19:21:03.845Z,95.20
2022-10-30T19:23:50.106Z,95.30
2022-10-30T19:26:37.727Z,95.60
2022-10-30T19:29:25.851Z,95.90
2022-10-30T19:35:16.304Z,96.20
2022-10-30T19:38:03.048Z,96.60
2022-10-30T19:40:50.955Z,96.70
2022-10-30T19:43:36.334Z,96.70
2022-10-30T19:46:21.700Z,97.10
2022-10-30T19:49:17.656Z,97.30
2022-10-30T19:52:03.995Z,97.60
2022-10-30T19:54:49.942Z,97.90
2022-10-30T19:57:35.210Z,98.00
2022-10-30T20:00:29.662Z,98.00
2022-10-30T20:03:15.840Z,98.10
2022-10-30T20:06:35.847Z,98.50
2022-10-30T20:18:23.787Z,99.20
2022-10-30T20:21:12.908Z,99.50
2022-10-30T20:24:00.453Z,99.60
2022-10-30T20:30:02.158Z,99.90
2022-10-30T20:35:41.979Z,99.90
2022-10-30T20:47:36.513Z,99.90
2022-10-30T20:50:50.919Z,99.90
2022-10-30T20:54:11.036Z,99.90
2022-10-30T20:56:56.598Z,99.90
2022-10-30T21:06:16.569Z,99.90
2022-10-30T21:09:02.248Z,99.90
2022-10-30T21:14:50.583Z,99.90
2022-10-30T21:17:38.358Z,99.90
2022-10-30T21:20:24.040Z,99.90
2022-10-30T21:23:29.941Z,99.90
2022-10-30T21:26:24.692Z,99.90
2022-10-30T21:29:13.088Z,99.90
2022-10-30T21:32:00.838Z,99.90
2022-10-30T21:34:46.551Z,99.90
2022-10-30T21:37:36.142Z,99.90
2022-10-30T21:40:23.843Z,99.90
2022-10-30T21:43:10.101Z,99.90
2022-10-30T21:45:56.003Z,99.90
2022-10-30T21:48:41.339Z,99.90
2022-10-30T21:51:27.317Z,99.90
2022-10-30T21:54:15.732Z,99.90
2022-10-30T21:57:01.996Z,99.90
2022-10-30T21:59:47.511Z,99.90
2022-10-30T22:02:36.165Z,99.90
2022-10-30T22:05:21.872Z,99.90
2022-10-30T22:08:07.108Z,99.90
2022-10-30T22:10:52.440Z,99.90
2022-10-30T22:13:38.720Z,99.90
2022-10-30T22:16:25.871Z,99.90
2022-10-30T22:19:11.556Z,99.90
2022-10-30T22:21:59.908Z,99.90
2022-10-30T22:24:45.260Z,99.90
2022-10-30T22:27:30.659Z,99.90
2022-10-30T22:30:16.128Z,99.90
2022-10-30T22:33:02.097Z,99.90
2022-10-30T22:35:48.378Z,99.90
2022-10-30T22:38:35.253Z,99.90
2022-10-30T22:41:27.129Z,99.90
2022-10-30T22:44:17.400Z,99.90
2022-10-30T22:47:03.075Z,99.90
2022-10-30T22:49:48.291Z,99.90
2022-10-30T22:52:33.415Z,99.90
2022-10-30T22:55:19.274Z,99.90
2022-10-30T22:58:07.180Z,99.90
2022-10-30T23:00:52.817Z,99.90
2022-10-30T23:03:38.816Z,99.90
2022-10-30T23:06:27.155Z,99.90
2022-10-30T23:09:22.193Z,99.90
2022-10-30T23:12:10.201Z,99.90
2022-10-30T23:14:55.457Z,99.90
2022-10-30T23:17:45.636Z,99.90
2022-10-30T23:20:30.848Z,99.90
2022-10-30T23:23:16.951Z,99.90
2022-10-30T23:26:08.726Z,99.90
2022-10-30T23:28:56.511Z,99.90
2022-10-30T23:31:42.761Z,99.90
2022-10-30T23:34:28.185Z,99.90
2022-10-30T23:37:15.573Z,99.90
2022-10-30T23:40:00.755Z,99.90
2022-10-30T23:42:48.393Z,99.90
2022-10-30T23:45:35.472Z,99.90
2022-10-30T23:48:20.785Z,99.90
2022-10-30T23:51:07.988Z,99.90
2022-10-30T23:53:53.910Z,99.90
2022-10-30T23:56:39.435Z,99.90
2022-10-30T23:59:25.044Z,99.90
